Time;durP1;ratioP1;P1;durP2;ratioP2;P2;SDS_P1;SDS_P2;PMS_P1;PMS_P2;Temp;Humidity;BMP_temperature;BMP_pressure;BME280_temperature;BME280_humidity;BME280_pressure;Samples;Min_cycle;Max_cycle;Signal;HPM_P1;HPM_P2
2022/12/02 00:00:15;;;;;;;81.63;43.65;;;;;;;4.86;99.17;102546.44;5031941;28;20025;-52
2022/12/02 00:02:41;;;;;;;75.65;43.10;;;;;;;4.86;99.16;102530.66;5031909;28;20033;-53
2022/12/02 00:05:17;;;;;;;80.40;44.08;;;;;;;4.88;99.03;102543.78;5031760;28;20021;-51
2022/12/02 00:07:47;;;;;;;79.55;42.03;;;;;;;4.85;98.80;102542.09;5032620;28;20038;-51
2022/12/02 00:10:22;;;;;;;;;;;;;;;4.91;98.69;102538.44;5033113;28;20025;-50
2022/12/02 00:12:48;;;;;;;83.53;43.72;;;;;;;4.83;98.78;102536.03;5030949;28;20047;-52
2022/12/02 00:15:32;;;;;;;103.68;49.20;;;;;;;4.84;98.16;102534.25;5032152;28;20491;-52
2022/12/02 00:17:57;;;;;;;96.15;49.08;;;;;;;4.76;97.65;102532.69;5030776;28;20022;-52
2022/12/02 00:20:23;;;;;;;100.47;49.00;;;;;;;4.70;96.79;102534.59;5031852;28;20029;-51
2022/12/02 00:22:48;;;;;;;101.00;48.17;;;;;;;4.66;96.79;102536.41;5032093;28;20036;-52
2022/12/02 00:25:13;;;;;;;95.55;48.05;;;;;;;4.61;96.72;102531.28;5032157;28;20099;-51
2022/12/02 00:27:39;;;;;;;103.90;51.83;;;;;;;4.57;96.98;102526.13;5040956;28;20503;-56
2022/12/02 00:30:04;;;;;;;97.35;48.10;;;;;;;4.56;96.68;102533.16;5031841;28;20341;-53
2022/12/02 00:32:30;;;;;;;91.35;47.80;;;;;;;4.53;96.38;102535.88;5031625;28;20566;-55
2022/12/02 00:34:55;;;;;;;85.68;46.17;;;;;;;4.52;95.93;102526.25;5032686;28;20475;-55
2022/12/02 00:37:20;;;;;;;89.85;48.15;;;;;;;4.48;95.63;102519.34;5032334;28;20067;-54
2022/12/02 00:39:46;;;;;;;82.40;46.80;;;;;;;4.47;95.49;102519.38;5031650;28;20427;-52
2022/12/02 00:42:11;;;;;;;80.28;44.00;;;;;;;4.43;94.58;102513.31;5040279;28;20060;-53
2022/12/02 00:47:20;;;;;;;79.60;45.95;;;;;;;4.39;94.43;102511.66;5022526;28;20113;-52
2022/12/02 00:49:45;;;;;;;79.10;43.88;;;;;;;4.36;94.39;102507.31;5030263;28;20434;-52
2022/12/02 00:52:11;;;;;;;80.60;45.08;;;;;;;4.34;94.41;102514.38;5031686;28;20025;-54
2022/12/02 00:54:36;;;;;;;75.40;44.33;;;;;;;4.33;94.51;102511.78;5030974;28;20034;-52
2022/12/02 00:57:01;;;;;;;81.07;44.88;;;;;;;4.32;94.47;102507.44;5031298;28;20438;-56
2022/12/02 00:59:26;;;;;;;83.05;45.75;;;;;;;4.32;94.47;102508.28;5031260;28;20040;-52
2022/12/02 01:01:52;;;;;;;76.10;42.70;;;;;;;4.33;94.54;102511.78;5031694;28;20372;-53
2022/12/02 01:04:17;;;;;;;79.70;44.40;;;;;;;4.31;94.49;102508.34;5031118;28;20048;-52
2022/12/02 01:06:42;;;;;;;77.95;44.90;;;;;;;4.30;94.59;102507.47;5031716;28;20025;-51
2022/12/02 01:09:07;;;;;;;82.43;43.53;;;;;;;4.26;94.44;102500.53;5031026;28;20039;-52
2022/12/02 01:11:33;;;;;;;81.25;42.08;;;;;;;4.25;94.59;102506.72;5027724;28;20026;-53
2022/12/02 01:13:58;;;;;;;75.47;42.58;;;;;;;4.24;94.66;102500.56;5035564;28;20467;-54
2022/12/02 01:16:23;;;;;;;77.10;44.53;;;;;;;4.23;94.90;102506.75;5036789;28;20104;-54
2022/12/02 01:18:49;;;;;;;75.60;42.40;;;;;;;4.24;94.78;102502.34;5030758;28;20017;-52
2022/12/02 01:21:14;;;;;;;71.82;42.40;;;;;;;4.23;94.80;102497.97;5033180;28;20053;-52
2022/12/02 01:23:39;;;;;;;80.65;44.17;;;;;;;4.23;94.50;102503.25;5034096;28;20044;-52
2022/12/02 01:26:04;;;;;;;73.45;42.55;;;;;;;4.19;94.51;102497.19;5034142;28;20536;-52
2022/12/02 01:28:30;;;;;;;72.20;41.05;;;;;;;4.16;93.86;102497.25;5034536;28;20028;-52
2022/12/02 01:30:55;;;;;;;68.07;41.58;;;;;;;4.14;93.93;102508.72;5034571;28;20026;-52
2022/12/02 01:33:20;;;;;;;73.43;41.58;;;;;;;4.11;93.88;102506.16;5034298;28;20498;-51
2022/12/02 01:35:45;;;;;;;69.53;41.25;;;;;;;4.09;94.20;102498.31;5034472;28;20029;-52
2022/12/02 01:38:11;;;;;;;70.55;40.67;;;;;;;4.10;94.29;102499.16;5034230;28;20072;-53
2022/12/02 01:40:36;;;;;;;74.50;42.25;;;;;;;4.11;94.54;102503.53;5036828;28;20498;-53
2022/12/02 01:43:02;;;;;;;79.78;43.20;;;;;;;4.12;94.91;102506.13;5033885;28;20061;-54
2022/12/02 01:45:27;;;;;;;68.88;41.00;;;;;;;4.12;94.91;102510.53;5029308;28;20033;-54
2022/12/02 01:47:53;;;;;;;73.30;42.50;;;;;;;4.12;95.04;102511.38;5028316;28;20029;-56
2022/12/02 01:50:19;;;;;;;75.40;42.83;;;;;;;4.13;95.77;102504.34;5024628;28;20103;-52
2022/12/02 01:52:45;;;;;;;77.45;39.80;;;;;;;4.13;95.38;102505.25;5034034;28;20033;-55
2022/12/02 01:55:14;;;;;;;73.22;40.60;;;;;;;4.13;95.53;102509.63;5033583;28;20037;-52
2022/12/02 01:57:39;;;;;;;78.50;41.95;;;;;;;4.13;95.51;102493.84;5034378;28;20090;-52
2022/12/02 02:00:07;;;;;;;73.47;39.88;;;;;;;4.12;95.30;102498.25;5034192;28;20022;-52
2022/12/02 02:02:37;;;;;;;73.53;39.15;;;;;;;4.13;95.20;102499.09;5034510;28;20545;-51
2022/12/02 02:05:13;;;;;;;72.13;38.90;;;;;;;4.09;95.37;102495.69;5034097;28;20036;-54
2022/12/02 02:07:39;;;;;;;80.60;42.83;;;;;;;4.10;95.46;102494.78;5033646;28;20037;-53
2022/12/02 02:10:07;;;;;;;70.63;39.67;;;;;;;4.07;95.34;102500.13;5034090;28;20032;-54
2022/12/02 02:12:32;;;;;;;73.78;39.97;;;;;;;4.10;95.36;102500.06;5033994;28;20017;-55
2022/12/02 02:14:57;;;;;;;73.00;39.60;;;;;;;4.10;95.46;102493.91;5028447;28;20542;-52
2022/12/02 02:17:23;;;;;;;72.75;39.78;;;;;;;4.10;95.72;102494.78;5030861;28;20025;-53
2022/12/02 02:19:49;;;;;;;76.05;39.17;;;;;;;4.10;95.58;102494.78;5033929;28;20025;-52
2022/12/02 02:22:20;;;;;;;72.47;40.85;;;;;;;4.08;95.29;102492.19;5033096;28;20034;-54
2022/12/02 02:24:45;;;;;;;71.40;38.75;;;;;;;4.06;95.10;102498.38;5033952;28;20029;-54
2022/12/02 02:27:11;;;;;;;74.18;40.22;;;;;;;4.04;95.09;102493.16;5032838;28;20446;-52
2022/12/02 02:29:36;;;;;;;76.30;39.83;;;;;;;4.04;95.42;102494.91;5033886;28;20029;-56
2022/12/02 02:32:02;;;;;;;73.00;38.85;;;;;;;4.03;95.41;102496.69;5031442;28;20017;-52
2022/12/02 02:34:28;;;;;;;71.05;39.20;;;;;;;4.03;95.34;102485.28;5034001;28;20431;-53
2022/12/02 02:36:53;;;;;;;77.88;42.50;;;;;;;4.02;95.34;102492.31;5033333;28;20025;-52
2022/12/02 02:39:18;;;;;;;71.65;41.03;;;;;;;3.99;95.28;102488.91;5033250;28;20468;-54
2022/12/02 02:41:45;;;;;;;71.75;38.97;;;;;;;3.99;95.54;102481.88;5032834;28;20033;-51
2022/12/02 02:44:10;;;;;;;77.95;40.97;;;;;;;3.98;95.72;102488.06;5033732;28;20025;-53
2022/12/02 02:46:36;;;;;;;79.97;40.70;;;;;;;3.95;95.01;102482.84;5044666;28;21212;-56
2022/12/02 02:49:01;;;;;;;69.43;39.55;;;;;;;3.91;94.99;102472.44;5033223;28;20041;-52
2022/12/02 02:51:26;;;;;;;70.57;39.33;;;;;;;3.92;95.27;102475.03;5032785;28;20107;-52
2022/12/02 02:53:52;;;;;;;72.53;41.53;;;;;;;3.89;95.21;102480.34;5031138;28;20471;-52
2022/12/02 02:56:17;;;;;;;81.40;42.75;;;;;;;3.87;94.04;102483.00;5033292;28;20108;-51
2022/12/02 02:58:42;;;;;;;74.25;40.55;;;;;;;3.81;93.81;102477.88;5032440;28;20043;-53
2022/12/02 03:01:31;;;;;;;74.20;40.40;;;;;;;3.80;93.86;102470.06;5033238;28;20041;-55
2022/12/02 03:04:00;;;;;;;68.93;39.03;;;;;;;3.75;93.71;102467.53;5032683;28;20045;-53
2022/12/02 03:06:28;;;;;;;69.90;38.38;;;;;;;3.73;93.61;102471.97;5035647;28;20107;-52
2022/12/02 03:08:53;;;;;;;68.22;36.60;;;;;;;3.69;93.29;102471.13;5030655;28;20475;-53
2022/12/02 03:11:19;;;;;;;64.53;37.30;;;;;;;3.66;92.82;102465.97;5032924;28;20029;-53
2022/12/02 03:13:46;;;;;;;67.68;39.38;;;;;;;3.65;93.02;102452.88;5032736;28;20463;-52
2022/12/02 03:16:14;;;;;;;67.45;37.15;;;;;;;3.65;92.77;102463.38;5032802;28;20040;-52
2022/12/02 03:18:42;;;;;;;63.20;36.42;;;;;;;3.63;92.34;102452.91;5032190;28;20477;-54
2022/12/02 03:21:08;;;;;;;67.00;37.25;;;;;;;3.60;92.26;102460.84;5032326;28;20045;-53
2022/12/02 03:23:34;;;;;;;64.10;36.90;;;;;;;3.61;92.18;102457.28;5033423;28;20477;-56
2022/12/02 03:26:01;;;;;;;59.45;36.13;;;;;;;3.61;92.11;102453.81;5032183;28;20061;-54
2022/12/02 03:28:27;;;;;;;61.58;37.55;;;;;;;3.56;90.87;102447.78;5032236;28;20459;-54
2022/12/02 03:30:52;;;;;;;61.75;36.60;;;;;;;3.54;91.30;102453.06;5032510;28;20147;-54
2022/12/02 03:33:18;;;;;;;61.67;36.78;;;;;;;3.51;91.20;102461.03;5032126;28;20029;-52
2022/12/02 03:35:43;;;;;;;63.53;37.83;;;;;;;3.46;91.07;102461.09;5032587;28;20029;-55
2022/12/02 03:38:09;;;;;;;62.70;37.28;;;;;;;3.42;90.98;102456.84;5032511;28;20049;-55
2022/12/02 03:40:34;;;;;;;60.88;36.63;;;;;;;3.39;91.05;102462.13;5021333;28;20053;-52
2022/12/02 03:43:00;;;;;;;65.05;36.58;;;;;;;3.34;90.48;102462.22;5032006;28;20021;-54
2022/12/02 03:45:25;;;;;;;61.28;36.05;;;;;;;3.32;90.88;102461.41;5032355;28;20029;-55
2022/12/02 03:47:51;;;;;;;59.35;34.17;;;;;;;3.31;91.05;102457.06;5022390;28;20030;-53
2022/12/02 03:50:17;;;;;;;61.78;35.00;;;;;;;3.25;90.47;102441.44;5032458;28;20033;-52
2022/12/02 03:52:42;;;;;;;59.20;34.67;;;;;;;3.24;90.83;102446.72;5032113;28;20029;-52
2022/12/02 03:55:09;;;;;;;62.40;35.22;;;;;;;3.19;90.39;102445.94;5027650;28;20025;-52
2022/12/02 03:57:35;;;;;;;62.75;35.53;;;;;;;3.19;90.37;102440.69;5031520;28;20041;-54
2022/12/02 04:00:00;;;;;;;60.63;35.30;;;;;;;3.15;90.86;102440.75;5031855;28;20025;-52
2022/12/02 04:02:26;;;;;;;58.35;34.53;;;;;;;3.15;91.06;102432.84;5031510;28;20131;-54
2022/12/02 04:04:52;;;;;;;64.57;35.95;;;;;;;3.17;91.29;102435.47;5031644;28;20029;-51
2022/12/02 04:07:17;;;;;;;67.05;36.28;;;;;;;3.17;90.96;102431.97;5031090;28;20018;-55
2022/12/02 04:09:43;;;;;;;62.53;36.20;;;;;;;3.16;90.96;102436.34;5031982;28;20028;-53
2022/12/02 04:12:08;;;;;;;66.68;37.45;;;;;;;3.14;90.79;102428.50;5033101;28;20517;-52
2022/12/02 04:14:33;;;;;;;60.28;36.03;;;;;;;3.14;91.00;102428.50;5039786;28;20032;-53
2022/12/02 04:16:58;;;;;;;61.22;35.22;;;;;;;3.14;91.14;102435.50;5030670;28;20347;-53
2022/12/02 04:19:24;;;;;;;64.85;36.53;;;;;;;3.12;91.56;102426.81;5031867;28;20471;-52
2022/12/02 04:21:49;;;;;;;65.93;36.83;;;;;;;3.15;91.76;102432.84;5031412;28;20025;-55
2022/12/02 04:24:14;;;;;;;65.85;35.65;;;;;;;3.14;91.63;102430.25;5031937;28;20531;-54
2022/12/02 04:26:40;;;;;;;62.65;37.65;;;;;;;3.13;91.37;102423.28;5031134;28;20151;-53
2022/12/02 04:29:05;;;;;;;67.10;37.88;;;;;;;3.12;91.83;102427.66;5037368;28;20032;-52
2022/12/02 04:31:30;;;;;;;62.00;36.45;;;;;;;3.12;91.82;102417.16;5032566;28;20025;-52
2022/12/02 04:33:56;;;;;;;64.32;34.90;;;;;;;3.11;91.84;102409.31;5032146;28;20033;-53
2022/12/02 04:36:21;;;;;;;57.42;31.80;;;;;;;3.11;91.81;102417.19;5030312;28;20048;-54
2022/12/02 04:38:46;;;;;;;62.50;32.95;;;;;;;3.09;92.04;102421.63;5032088;28;20033;-52
2022/12/02 04:41:11;;;;;;;64.03;33.08;;;;;;;3.07;92.08;102421.66;5032013;28;20471;-54
2022/12/02 04:43:36;;;;;;;59.05;32.92;;;;;;;3.07;92.13;102420.78;5032332;28;20041;-54
2022/12/02 04:46:02;;;;;;;60.17;33.55;;;;;;;3.05;92.00;102417.31;5030996;28;20025;-53
2022/12/02 04:48:27;;;;;;;61.15;34.20;;;;;;;3.02;91.99;102426.13;5030402;28;20459;-53
2022/12/02 04:50:52;;;;;;;59.33;32.97;;;;;;;3.00;92.15;102417.44;5031655;28;20037;-53
2022/12/02 04:53:18;;;;;;;60.17;33.00;;;;;;;2.97;92.40;102418.34;5031415;28;20026;-52
2022/12/02 04:55:45;;;;;;;62.28;33.33;;;;;;;2.97;92.51;102418.34;5030718;28;20480;-52
2022/12/02 04:58:11;;;;;;;54.95;31.23;;;;;;;2.95;91.83;102408.78;5031910;28;20151;-54
2022/12/02 05:00:36;;;;;;;59.22;31.23;;;;;;;2.89;91.40;102411.50;5034580;28;20463;-55
2022/12/02 05:03:01;;;;;;;57.20;30.83;;;;;;;2.89;92.27;102406.25;5035428;28;20044;-54
2022/12/02 05:05:27;;;;;;;59.17;31.75;;;;;;;2.90;91.78;102411.47;5034579;28;20032;-55
2022/12/02 05:07:52;;;;;;;53.63;30.50;;;;;;;2.88;91.44;102400.16;5035423;28;20475;-52
2022/12/02 05:10:17;;;;;;;49.60;28.40;;;;;;;2.88;91.13;102401.91;5045161;28;20021;-53
2022/12/02 05:12:42;;;;;;;47.50;26.85;;;;;;;2.89;90.32;102403.63;5034778;28;20113;-51
2022/12/02 05:15:08;;;;;;;45.22;25.35;;;;;;;2.86;89.87;102401.91;5034537;28;20114;-53
2022/12/02 05:17:34;;;;;;;48.10;25.52;;;;;;;2.86;90.01;102399.31;5034591;28;20498;-53
2022/12/02 05:19:59;;;;;;;48.72;26.98;;;;;;;2.87;90.08;102393.16;5035035;28;20112;-55
2022/12/02 05:22:24;;;;;;;47.72;26.67;;;;;;;2.87;90.60;102385.28;5028552;28;20375;-52
2022/12/02 05:24:49;;;;;;;46.38;26.90;;;;;;;2.90;90.71;102389.63;5032213;28;20017;-53
2022/12/02 05:27:15;;;;;;;49.00;27.10;;;;;;;2.90;90.38;102390.47;5034842;28;20052;-52
2022/12/02 05:29:40;;;;;;;51.33;28.20;;;;;;;2.93;90.54;102392.16;5034736;28;20025;-54
2022/12/02 05:32:06;;;;;;;49.08;28.33;;;;;;;2.93;90.57;102392.16;5044898;28;20035;-52
2022/12/02 05:34:31;;;;;;;47.40;27.10;;;;;;;2.93;90.77;102387.81;5034805;28;20479;-52
2022/12/02 05:36:56;;;;;;;48.85;27.27;;;;;;;2.94;90.22;102393.91;5045036;28;20390;-54
2022/12/02 05:39:22;;;;;;;46.85;27.23;;;;;;;2.92;90.41;102399.19;5033944;28;20030;-55
2022/12/02 05:41:48;;;;;;;51.28;28.40;;;;;;;2.91;90.23;102405.31;5034522;28;20061;-52
2022/12/02 05:44:20;;;;;;;49.55;28.45;;;;;;;2.87;90.43;102385.28;5034496;28;20033;-52
2022/12/02 05:46:46;;;;;;;48.40;28.13;;;;;;;2.89;90.57;102374.78;5041370;28;20087;-53
2022/12/02 05:49:17;;;;;;;48.10;28.23;;;;;;;2.87;90.58;102392.31;5031929;28;20026;-52
2022/12/02 05:51:42;;;;;;;50.22;27.83;;;;;;;2.87;90.81;102382.66;5034482;28;20036;-54
2022/12/02 05:54:16;;;;;;;51.05;28.75;;;;;;;2.85;90.42;102387.09;5033045;28;20025;-55
2022/12/02 05:56:41;;;;;;;48.47;26.77;;;;;;;2.85;90.55;102383.59;5034173;28;20120;-55
2022/12/02 05:59:13;;;;;;;50.15;27.00;;;;;;;2.86;90.33;102390.56;5033444;28;20449;-50
2022/12/02 06:01:38;;;;;;;43.97;25.55;;;;;;;2.83;90.33;102385.38;5034480;28;20065;-53
2022/12/02 06:04:11;;;;;;;48.75;26.27;;;;;;;2.80;90.29;102381.06;5038834;28;20017;-54
2022/12/02 06:06:36;;;;;;;44.72;25.75;;;;;;;2.81;90.10;102381.91;5030203;28;20100;-53
2022/12/02 06:09:02;;;;;;;45.88;25.55;;;;;;;2.77;90.42;102384.59;5032756;28;20021;-52
2022/12/02 06:11:37;;;;;;;44.92;25.38;;;;;;;2.76;90.51;102392.50;5033905;28;20048;-54
2022/12/02 06:14:12;;;;;;;45.30;24.40;;;;;;;2.77;90.45;102386.38;5026603;28;20043;-54
2022/12/02 06:16:39;;;;;;;46.38;24.52;;;;;;;2.76;90.30;102387.25;5033552;28;20050;-50
2022/12/02 06:19:24;;;;;;;46.03;23.60;;;;;;;2.80;90.83;102383.69;5033522;28;20025;-51
2022/12/02 06:21:50;;;;;;;43.20;24.38;;;;;;;2.80;90.37;102385.44;5033629;28;20033;-52
2022/12/02 06:24:24;;;;;;;46.80;25.63;;;;;;;2.78;90.49;102391.59;5033442;28;20021;-50
2022/12/02 06:26:50;;;;;;;43.08;23.33;;;;;;;2.77;90.09;102389.84;5032337;28;20151;-51
2022/12/02 06:29:17;;;;;;;46.95;24.80;;;;;;;2.78;90.71;102375.84;5033650;28;20029;-54
2022/12/02 06:31:43;;;;;;;44.92;24.25;;;;;;;2.80;90.70;102386.31;5033828;28;20032;-52
2022/12/02 06:34:36;;;;;;;46.10;25.00;;;;;;;2.82;90.80;102387.16;5034585;28;20026;-52
2022/12/02 06:37:12;;;;;;;43.72;23.77;;;;;;;2.79;90.58;102384.56;5022694;28;20025;-53
2022/12/02 06:39:38;;;;;;;42.33;23.85;;;;;;;2.76;90.09;102382.00;5032652;28;20475;-54
2022/12/02 06:42:18;;;;;;;42.90;23.35;;;;;;;2.73;89.92;102382.94;5032925;28;20087;-51
2022/12/02 06:47:33;;;;;;;43.85;23.42;;;;;;;2.70;90.42;102385.63;5024852;28;20044;-52
2022/12/02 06:50:04;;;;;;;44.25;24.38;;;;;;;2.68;90.78;102384.78;5033802;28;20037;-53
2022/12/02 06:52:41;;;;;;;48.60;25.20;;;;;;;2.68;90.76;102382.16;5033652;28;20048;-56
2022/12/02 06:55:29;;;;;;;46.63;24.67;;;;;;;2.72;90.90;102385.59;5033178;28;20034;-50
2022/12/02 06:57:58;;;;;;;45.25;24.00;;;;;;;2.68;91.24;102384.78;5026157;28;20095;-50
2022/12/02 07:00:23;;;;;;;42.90;24.23;;;;;;;2.71;90.96;102384.72;5032839;28;20025;-51
2022/12/02 07:02:48;;;;;;;42.92;22.77;;;;;;;2.68;90.86;102390.03;5032999;28;20043;-51
2022/12/02 07:05:20;;;;;;;41.85;23.23;;;;;;;2.66;91.15;102388.31;5029795;28;20045;-53
2022/12/02 07:07:45;;;;;;;42.03;23.83;;;;;;;2.65;91.43;102384.84;5027367;28;20033;-48
2022/12/02 07:10:28;;;;;;;45.65;24.27;;;;;;;2.66;91.15;102397.06;5026342;28;20028;-49
2022/12/02 07:12:57;;;;;;;41.75;23.73;;;;;;;2.63;91.26;102399.75;5030525;28;20040;-50
2022/12/02 07:15:29;;;;;;;41.67;22.80;;;;;;;2.64;91.38;102390.13;5032160;28;20487;-49
2022/12/02 07:18:20;;;;;;;42.78;23.33;;;;;;;2.65;91.00;102397.06;5031039;28;20124;-54
2022/12/02 07:20:46;;;;;;;43.65;23.42;;;;;;;2.61;91.20;102396.28;5025612;28;20037;-50
2022/12/02 07:23:19;;;;;;;41.85;23.90;;;;;;;2.61;91.39;102391.03;5030600;28;20033;-50
2022/12/02 07:25:55;;;;;;;42.70;23.45;;;;;;;2.62;91.68;102400.63;5027951;28;20061;-51
2022/12/02 07:28:29;;;;;;;45.67;24.35;;;;;;;2.64;91.86;102401.47;5028010;28;20064;-50
2022/12/02 07:31:01;;;;;;;41.20;22.15;;;;;;;2.66;91.94;102401.44;5028559;28;20499;-51
2022/12/02 07:33:28;;;;;;;45.45;23.45;;;;;;;2.66;92.00;102393.56;5027692;28;20048;-54
2022/12/02 07:35:54;;;;;;;43.92;23.25;;;;;;;2.64;92.11;102390.97;5026777;28;20033;-51
2022/12/02 07:38:19;;;;;;;38.33;22.23;;;;;;;2.64;91.95;102387.50;5027208;28;20495;-51
2022/12/02 07:40:44;;;;;;;40.35;22.02;;;;;;;2.63;91.97;102386.66;5027990;28;20037;-52
2022/12/02 07:43:10;;;;;;;38.83;19.90;;;;;;;2.63;91.89;102388.38;5027785;28;20041;-50
2022/12/02 07:45:36;;;;;;;40.75;21.52;;;;;;;2.62;92.62;102387.53;5027789;28;20095;-53
2022/12/02 07:48:01;;;;;;;44.53;21.70;;;;;;;2.64;92.00;102384.88;5028200;28;20170;-51
2022/12/02 07:50:26;;;;;;;37.85;20.25;;;;;;;2.64;92.11;102385.72;5027453;28;20045;-52
2022/12/02 07:52:51;;;;;;;36.25;21.08;;;;;;;2.65;91.88;102387.47;5027739;28;20051;-52
2022/12/02 07:55:17;;;;;;;35.50;20.35;;;;;;;2.66;91.36;102380.47;5027547;28;20041;-50
2022/12/02 07:57:42;;;;;;;35.05;18.75;;;;;;;2.65;91.59;102383.97;5028700;28;20025;-51
2022/12/02 08:00:08;;;;;;;37.30;20.23;;;;;;;2.62;91.44;102387.53;5027980;28;20570;-50
2022/12/02 08:02:33;;;;;;;35.90;20.52;;;;;;;2.64;91.25;102390.97;5026390;28;20049;-50
2022/12/02 08:04:59;;;;;;;38.20;20.25;;;;;;;2.62;91.34;102394.53;5019393;28;20035;-50
2022/12/02 08:07:24;;;;;;;36.80;20.35;;;;;;;2.61;91.33;102398.03;5029338;28;20021;-53
2022/12/02 08:09:49;;;;;;;38.55;20.10;;;;;;;2.62;91.38;102397.16;5028076;28;20038;-53
2022/12/02 08:12:14;;;;;;;40.70;19.73;;;;;;;2.62;91.50;102411.13;5026466;28;20037;-51
2022/12/02 08:14:40;;;;;;;41.58;20.98;;;;;;;2.61;91.73;102405.91;5027766;28;20442;-50
2022/12/02 08:17:05;;;;;;;38.28;21.02;;;;;;;2.61;91.68;102404.16;5028658;28;20066;-52
2022/12/02 08:19:30;;;;;;;40.50;21.73;;;;;;;2.61;91.71;102398.03;5027485;28;20029;-54
2022/12/02 08:21:55;;;;;;;36.03;20.38;;;;;;;2.59;92.16;102385.81;5026568;28;20435;-52
2022/12/02 08:24:21;;;;;;;42.83;21.80;;;;;;;2.62;92.19;102394.53;5028984;28;20030;-51
2022/12/02 08:26:46;;;;;;;41.15;23.02;;;;;;;2.61;92.37;102387.56;5024949;28;20038;-50
2022/12/02 08:29:11;;;;;;;43.53;23.48;;;;;;;2.64;92.53;102388.34;5028509;28;20036;-51
2022/12/02 08:31:37;;;;;;;37.70;21.35;;;;;;;2.67;92.95;102390.91;5028687;28;20067;-52
2022/12/02 08:34:02;;;;;;;39.50;22.30;;;;;;;2.68;92.94;102390.03;5033510;28;20034;-53
2022/12/02 08:36:27;;;;;;;39.75;21.85;;;;;;;2.68;93.17;102386.53;5034314;28;20037;-52
2022/12/02 08:38:52;;;;;;;38.72;21.92;;;;;;;2.68;93.52;102383.91;5033920;28;20033;-52
2022/12/02 08:41:18;;;;;;;39.33;21.70;;;;;;;2.68;93.61;102394.41;5035217;28;20025;-51
2022/12/02 08:43:43;;;;;;;40.33;21.88;;;;;;;2.68;94.32;102382.16;5035005;28;20116;-51
2022/12/02 08:46:09;;;;;;;41.70;23.90;;;;;;;2.65;94.56;102383.97;5035924;28;20112;-51
2022/12/02 08:48:35;;;;;;;46.58;24.33;;;;;;;2.64;94.79;102388.34;5035763;28;20044;-50
2022/12/02 08:51:00;;;;;;;40.75;23.33;;;;;;;2.64;95.25;102392.75;5032362;28;20025;-51
2022/12/02 08:53:26;;;;;;;44.25;23.70;;;;;;;2.65;95.24;102392.72;5035037;28;20156;-51
2022/12/02 08:55:51;;;;;;;45.22;24.67;;;;;;;2.65;95.41;102389.22;5032434;28;20068;-50
2022/12/02 08:58:17;;;;;;;42.20;23.77;;;;;;;2.65;95.14;102392.72;5034091;28;20100;-50
2022/12/02 09:00:42;;;;;;;49.47;25.15;;;;;;;2.62;95.51;102390.16;5013063;28;20132;-52
2022/12/02 09:03:09;;;;;;;45.47;24.90;;;;;;;2.62;95.27;102384.91;5036829;28;20029;-52
2022/12/02 09:05:36;;;;;;;44.70;23.65;;;;;;;2.61;95.67;102385.78;5034403;28;20047;-51
2022/12/02 09:08:01;;;;;;;41.42;22.10;;;;;;;2.60;95.71;102389.31;5034228;28;20053;-53
2022/12/02 09:10:27;;;;;;;41.88;23.13;;;;;;;2.59;95.64;102384.94;5034450;28;20018;-52
2022/12/02 09:12:53;;;;;;;44.90;23.23;;;;;;;2.59;96.13;102388.44;5045726;28;20113;-53
2022/12/02 09:15:19;;;;;;;41.28;22.52;;;;;;;2.61;95.88;102391.03;5034269;28;20533;-51
2022/12/02 09:17:45;;;;;;;42.03;21.80;;;;;;;2.63;95.96;102391.88;5035882;28;20064;-53
2022/12/02 09:20:11;;;;;;;37.03;20.05;;;;;;;2.63;96.53;102393.63;5034064;28;20454;-51
2022/12/02 09:22:36;;;;;;;39.70;20.58;;;;;;;2.63;96.30;102386.66;5029074;28;20033;-51
2022/12/02 09:25:01;;;;;;;39.92;21.60;;;;;;;2.64;96.69;102393.59;5032655;28;20034;-50
2022/12/02 09:27:27;;;;;;;35.83;20.80;;;;;;;2.66;96.55;102383.09;5033933;28;20446;-51
2022/12/02 09:29:52;;;;;;;33.83;19.85;;;;;;;2.65;96.66;102387.47;5037921;28;20033;-53
2022/12/02 09:32:17;;;;;;;28.33;16.20;;;;;;;2.64;96.34;102387.50;5032923;28;20057;-50
2022/12/02 09:34:43;;;;;;;28.38;16.58;;;;;;;2.58;96.62;102383.22;5033355;28;20380;-52
2022/12/02 09:37:08;;;;;;;32.17;18.40;;;;;;;2.55;97.36;102385.91;5047032;28;20032;-51
2022/12/02 09:39:33;;;;;;;28.60;17.08;;;;;;;2.55;97.48;102378.91;5034323;28;20033;-52
2022/12/02 09:41:59;;;;;;;32.63;18.75;;;;;;;2.55;97.69;102384.16;5036445;28;20033;-51
2022/12/02 09:44:25;;;;;;;31.70;17.20;;;;;;;2.56;97.74;102364.88;5033653;28;20424;-52
2022/12/02 09:46:50;;;;;;;30.40;16.77;;;;;;;2.55;97.97;102373.66;5020529;28;20054;-51
2022/12/02 09:49:16;;;;;;;33.45;18.17;;;;;;;2.54;98.23;102369.28;5032178;28;20422;-50
2022/12/02 09:51:42;;;;;;;30.90;16.83;;;;;;;2.54;98.17;102371.06;5031467;28;20499;-51
2022/12/02 09:54:12;;;;;;;33.75;18.65;;;;;;;2.54;98.86;102365.81;5033787;28;20067;-50
2022/12/02 09:56:39;;;;;;;33.50;18.05;;;;;;;2.57;98.96;102365.75;5039898;28;20029;-51
2022/12/02 09:59:14;;;;;;;30.73;17.98;;;;;;;2.56;99.20;102367.50;5031561;28;20025;-52
2022/12/02 10:01:42;;;;;;;37.15;18.77;;;;;;;2.56;99.46;102362.25;5022889;28;20397;-52
2022/12/02 10:04:08;;;;;;;33.30;18.40;;;;;;;2.59;99.32;102366.59;5033442;28;20037;-51
2022/12/02 10:06:34;;;;;;;35.08;18.50;;;;;;;2.62;99.86;102368.31;5032233;28;20037;-52
2022/12/02 10:09:00;;;;;;;31.13;17.67;;;;;;;2.62;99.76;102366.53;5027540;28;20024;-52
2022/12/02 10:11:31;;;;;;;30.42;17.30;;;;;;;2.62;99.48;102363.06;5021487;28;20475;-51
2022/12/02 10:13:58;;;;;;;35.78;18.45;;;;;;;2.64;99.76;102361.25;5033926;28;20038;-52
2022/12/02 10:16:26;;;;;;;33.47;17.88;;;;;;;2.64;100.00;102356.88;5033509;28;20052;-50
2022/12/02 10:18:54;;;;;;;33.05;18.02;;;;;;;2.62;99.87;102369.16;5033483;28;20029;-50
2022/12/02 10:21:19;;;;;;;33.08;17.27;;;;;;;2.64;100.00;102362.13;5031319;28;20041;-53
2022/12/02 10:23:52;;;;;;;34.80;18.13;;;;;;;2.65;100.00;102362.97;5031574;28;20165;-51
2022/12/02 10:26:18;;;;;;;37.70;18.52;;;;;;;2.62;100.00;102357.81;5031649;28;20092;-51
2022/12/02 10:29:04;;;;;;;36.88;19.30;;;;;;;2.61;100.00;102366.56;5031018;28;20116;-54
2022/12/02 10:31:30;;;;;;;37.30;19.00;;;;;;;2.55;100.00;102357.91;5025214;28;20394;-51
2022/12/02 10:34:04;;;;;;;39.25;18.63;;;;;;;2.56;100.00;102349.13;5030992;28;20009;-50
2022/12/02 10:36:31;;;;;;;40.25;20.45;;;;;;;2.57;100.00;102352.66;5026457;28;20104;-51
2022/12/02 10:39:25;;;;;;;42.00;19.98;;;;;;;2.58;100.00;102351.72;5032746;28;20025;-51
2022/12/02 10:42:03;;;;;;;47.03;21.42;;;;;;;2.57;100.00;102344.78;5031358;28;20104;-49
2022/12/02 10:44:28;;;;;;;44.63;21.23;;;;;;;2.54;99.92;102340.44;5033201;28;20554;-51
2022/12/02 10:47:15;;;;;;;43.95;20.77;;;;;;;2.54;100.00;102345.69;5032574;28;20113;-51
2022/12/02 10:49:54;;;;;;;47.17;21.98;;;;;;;2.55;100.00;102341.31;5029178;28;20112;-50
2022/12/02 10:52:25;;;;;;;;;;;;;;;2.62;99.83;102337.69;5032291;28;20099;-50
2022/12/02 10:54:53;;;;;;;47.10;22.45;;;;;;;2.56;100.00;102335.16;5032572;28;19913;-50
2022/12/02 10:57:27;;;;;;;53.60;22.88;;;;;;;2.57;100.00;102334.28;5029390;28;20411;-51
2022/12/02 10:59:55;;;;;;;51.33;24.05;;;;;;;2.56;100.00;102335.16;5032322;28;20163;-50
2022/12/02 11:02:33;;;;;;;56.88;24.63;;;;;;;2.57;100.00;102339.53;5035656;28;20025;-53
2022/12/02 11:05:12;;;;;;;54.92;24.63;;;;;;;2.57;100.00;102327.28;5032276;28;20128;-52
2022/12/02 11:07:37;;;;;;;49.08;23.58;;;;;;;2.57;100.00;102331.66;5023221;28;20092;-50
2022/12/02 11:10:03;;;;;;;53.47;24.70;;;;;;;2.59;100.00;102330.72;5025137;28;20474;-51
2022/12/02 11:12:34;;;;;;;58.05;23.45;;;;;;;2.64;100.00;102321.91;5023869;28;20021;-50
2022/12/02 11:15:01;;;;;;;57.55;25.30;;;;;;;2.66;100.00;102328.84;5030467;28;20021;-50
2022/12/02 11:17:47;;;;;;;51.35;24.42;;;;;;;2.72;100.00;102325.25;5023509;28;20029;-50
2022/12/02 11:20:29;;;;;;;59.50;26.02;;;;;;;2.71;99.63;102320.88;5028287;28;20108;-51
2022/12/02 11:22:57;;;;;;;54.08;25.38;;;;;;;2.70;99.33;102324.44;5031225;28;20037;-49